createdAt,value
2023-01-25T00:00:33.672Z,-7.40
2023-01-25T00:03:31.500Z,-7.30
2023-01-25T00:06:29.219Z,-7.30
2023-01-25T00:09:27.168Z,-7.30
2023-01-25T00:12:24.868Z,-7.30
2023-01-25T00:15:22.800Z,-7.30
2023-01-25T00:18:20.608Z,-7.20
2023-01-25T00:21:20.666Z,-7.30
2023-01-25T00:24:18.777Z,-7.40
2023-01-25T00:27:16.673Z,-7.40
2023-01-25T00:30:14.580Z,-7.40
2023-01-25T00:33:44.995Z,-7.40
2023-01-25T00:36:45.136Z,-7.40
2023-01-25T00:39:43.043Z,-7.30
2023-01-25T00:42:41.348Z,-7.30
2023-01-25T00:45:39.203Z,-7.30
2023-01-25T00:48:37.029Z,-7.30
2023-01-25T00:51:34.877Z,-7.30
2023-01-25T00:54:32.608Z,-7.20
2023-01-25T00:57:30.430Z,-7.20
2023-01-25T01:00:28.258Z,-7.20
2023-01-25T01:03:26.245Z,-7.20
2023-01-25T01:06:23.954Z,-7.20
2023-01-25T01:09:23.169Z,-7.20
2023-01-25T01:12:21.108Z,-7.30
2023-01-25T01:15:18.896Z,-7.30
2023-01-25T01:18:16.571Z,-7.30
2023-01-25T01:21:14.804Z,-7.20
2023-01-25T01:24:12.575Z,-7.30
2023-01-25T01:27:10.548Z,-7.30
2023-01-25T01:30:08.884Z,-7.30
2023-01-25T01:33:07.171Z,-7.30
2023-01-25T01:36:11.727Z,-7.30
2023-01-25T01:39:10.008Z,-7.20
2023-01-25T01:42:07.673Z,-7.20
2023-01-25T01:45:40.720Z,-7.30
2023-01-25T01:48:49.613Z,-7.30
2023-01-25T01:51:56.815Z,-7.30
2023-01-25T01:55:03.656Z,-7.30
2023-01-25T01:58:04.098Z,-7.50
2023-01-25T02:01:02.104Z,-7.40
2023-01-25T02:04:00.903Z,-7.40
2023-01-25T02:07:06.402Z,-7.40
2023-01-25T02:10:08.179Z,-7.40
2023-01-25T02:13:05.877Z,-7.40
2023-01-25T02:16:05.332Z,-7.40
2023-01-25T02:19:04.229Z,-7.40
2023-01-25T02:22:08.348Z,-7.40
2023-01-25T02:25:09.667Z,-7.40
2023-01-25T02:28:17.463Z,-7.40
2023-01-25T02:31:15.412Z,-7.40
2023-01-25T02:34:13.340Z,-7.40
2023-01-25T02:37:15.553Z,-7.40
2023-01-25T02:40:13.587Z,-7.50
2023-01-25T02:43:11.445Z,-7.40
2023-01-25T02:46:18.596Z,-7.30
2023-01-25T02:49:17.742Z,-7.30
2023-01-25T02:52:15.477Z,-7.30
2023-01-25T02:55:13.532Z,-7.20
2023-01-25T02:58:11.360Z,-7.20
2023-01-25T03:01:09.837Z,-7.10
2023-01-25T03:04:08.384Z,-6.90
2023-01-25T03:07:06.157Z,-6.80
2023-01-25T03:10:04.002Z,-6.80
2023-01-25T03:13:01.848Z,-6.80
2023-01-25T03:16:03.818Z,-6.70
2023-01-25T03:19:01.530Z,-6.60
2023-01-25T03:21:59.624Z,-6.50
2023-01-25T03:24:57.772Z,-6.40
2023-01-25T03:27:56.878Z,-6.40
2023-01-25T03:30:56.266Z,-6.40
2023-01-25T03:33:54.063Z,-6.30
2023-01-25T03:36:54.046Z,-6.20
2023-01-25T03:39:51.954Z,-6.20
2023-01-25T03:42:49.629Z,-6.10
2023-01-25T03:45:52.082Z,-5.90
2023-01-25T03:48:49.743Z,-5.80
2023-01-25T03:51:47.469Z,-5.60
2023-01-25T03:54:45.163Z,-5.50
2023-01-25T03:57:43.140Z,-5.30
2023-01-25T04:00:40.819Z,-5.20
2023-01-25T04:03:39.147Z,-5.10
2023-01-25T04:06:36.961Z,-5.00
2023-01-25T04:09:35.031Z,-4.90
2023-01-25T04:12:32.932Z,-4.70
2023-01-25T04:15:31.109Z,-4.60
2023-01-25T04:18:28.931Z,-4.50
2023-01-25T04:21:27.425Z,-4.50
2023-01-25T04:24:25.269Z,-4.40
2023-01-25T04:27:23.097Z,-4.20
2023-01-25T04:30:21.036Z,-4.20
2023-01-25T04:33:18.864Z,-4.10
2023-01-25T04:36:16.722Z,-4.10
2023-01-25T04:39:14.718Z,-4.00
2023-01-25T04:42:12.523Z,-3.90
2023-01-25T04:45:11.243Z,-3.90
2023-01-25T04:48:11.900Z,-3.80
2023-01-25T04:51:10.041Z,-3.70
2023-01-25T04:54:07.731Z,-3.70
2023-01-25T04:57:06.052Z,-3.60
2023-01-25T05:00:04.181Z,-3.50
2023-01-25T05:03:02.000Z,-3.40
2023-01-25T05:05:59.981Z,-3.40
2023-01-25T05:08:57.752Z,-3.30
2023-01-25T05:11:55.674Z,-3.20
2023-01-25T05:14:53.514Z,-3.20
2023-01-25T05:17:51.245Z,-3.10
2023-01-25T05:20:49.061Z,-3.10
2023-01-25T05:23:46.692Z,-3.10
2023-01-25T05:26:59.977Z,-3.00
2023-01-25T05:29:58.269Z,-2.90
2023-01-25T05:32:56.026Z,-2.90
2023-01-25T05:35:54.289Z,-2.90
2023-01-25T05:38:53.517Z,-2.80
2023-01-25T05:41:51.535Z,-2.80
2023-01-25T05:44:49.681Z,-2.80
2023-01-25T05:47:47.360Z,-2.70
2023-01-25T05:50:45.114Z,-2.70
2023-01-25T05:53:42.993Z,-2.70
2023-01-25T05:56:40.959Z,-2.90
2023-01-25T05:59:39.443Z,-2.70
2023-01-25T06:02:37.637Z,-2.80
2023-01-25T06:05:35.382Z,-2.80
2023-01-25T06:08:33.524Z,-2.90
2023-01-25T06:11:31.255Z,-2.70
2023-01-25T06:14:29.135Z,-2.80
2023-01-25T06:17:27.059Z,-2.70
2023-01-25T06:20:24.925Z,-2.90
2023-01-25T06:23:22.765Z,-3.40
2023-01-25T06:26:20.573Z,-3.30
2023-01-25T06:29:19.263Z,-3.00
2023-01-25T06:32:17.164Z,-2.90
2023-01-25T06:35:15.226Z,-3.40
2023-01-25T06:38:13.142Z,-3.40
2023-01-25T06:41:13.286Z,-3.20
2023-01-25T06:44:13.062Z,-3.40
2023-01-25T06:47:10.857Z,-3.10
2023-01-25T06:50:09.958Z,-3.00
2023-01-25T06:53:07.627Z,-3.30
2023-01-25T06:56:11.613Z,-3.30
2023-01-25T06:59:09.638Z,-3.20
2023-01-25T07:02:07.978Z,-3.00
2023-01-25T07:05:06.025Z,-3.00
2023-01-25T07:08:03.894Z,-3.20
2023-01-25T07:11:05.880Z,-3.10
2023-01-25T07:14:06.687Z,-2.90
2023-01-25T07:17:04.584Z,-2.80
2023-01-25T07:20:02.381Z,-2.60
2023-01-25T07:23:02.183Z,-2.50
2023-01-25T07:26:01.208Z,-2.50
2023-01-25T07:29:00.152Z,-2.30
2023-01-25T07:31:58.310Z,-2.40
2023-01-25T07:34:56.068Z,-2.40
2023-01-25T07:37:53.860Z,-2.30
2023-01-25T07:40:53.877Z,-2.40
2023-01-25T07:43:51.984Z,-2.20
2023-01-25T07:46:54.789Z,-2.30
2023-01-25T07:49:52.871Z,-2.10
2023-01-25T07:52:50.555Z,-2.10
2023-01-25T07:55:48.382Z,-2.00
2023-01-25T07:58:46.965Z,-2.10
2023-01-25T08:01:44.884Z,-2.20
2023-01-25T08:04:43.025Z,-2.10
2023-01-25T08:07:40.875Z,-2.10
2023-01-25T08:10:39.772Z,-2.00
2023-01-25T08:13:39.041Z,-2.00
2023-01-25T08:16:39.260Z,-1.90
2023-01-25T08:19:37.485Z,-1.80
2023-01-25T08:22:35.243Z,-1.80
2023-01-25T08:25:33.107Z,-1.90
2023-01-25T08:28:31.103Z,-1.80
2023-01-25T08:31:31.677Z,-1.70
2023-01-25T08:34:31.727Z,-1.70
2023-01-25T08:37:30.398Z,-1.70
2023-01-25T08:40:28.260Z,-1.80
2023-01-25T08:43:26.101Z,-1.70
2023-01-25T08:46:28.631Z,-1.70
2023-01-25T08:49:28.485Z,-1.60
2023-01-25T08:52:26.147Z,-1.60
2023-01-25T08:55:25.099Z,-1.70
2023-01-25T08:58:23.223Z,-1.70
2023-01-25T09:01:22.202Z,-1.60
2023-01-25T09:04:20.058Z,-1.60
2023-01-25T09:07:18.102Z,-1.70
2023-01-25T09:10:15.832Z,-1.80
2023-01-25T09:13:17.746Z,-1.80
2023-01-25T09:16:20.347Z,-1.80
2023-01-25T09:19:18.337Z,-1.70
2023-01-25T09:22:15.979Z,-1.70
2023-01-25T09:25:13.901Z,-1.70
2023-01-25T09:28:12.362Z,-1.70
2023-01-25T09:31:21.733Z,-1.80
2023-01-25T09:34:20.934Z,-1.80
2023-01-25T09:37:19.637Z,-2.30
2023-01-25T09:40:24.786Z,-3.20
2023-01-25T09:43:49.810Z,-3.10
2023-01-25T09:46:56.697Z,-3.20
2023-01-25T09:50:25.140Z,-2.90
2023-01-25T09:53:40.660Z,-2.90
2023-01-25T09:56:40.355Z,-2.80
2023-01-25T09:59:41.381Z,-3.00
2023-01-25T10:02:50.816Z,-3.00
2023-01-25T10:05:51.114Z,-3.00
2023-01-25T10:09:12.827Z,-3.00
2023-01-25T10:12:21.976Z,-3.00
2023-01-25T10:15:23.324Z,-2.90
2023-01-25T10:18:56.224Z,-3.20
2023-01-25T10:22:01.821Z,-3.20
2023-01-25T10:25:05.962Z,-3.00
2023-01-25T10:28:25.408Z,-3.10
2023-01-25T10:31:34.313Z,-3.10
2023-01-25T10:34:54.978Z,-3.00
2023-01-25T10:37:54.453Z,-2.90
2023-01-25T10:41:01.131Z,-3.00
2023-01-25T10:44:14.403Z,-3.00
2023-01-25T10:47:27.033Z,-3.10
2023-01-25T10:50:46.795Z,-3.00
2023-01-25T10:53:44.844Z,-2.90
2023-01-25T10:56:44.895Z,-3.00
2023-01-25T10:59:47.650Z,-3.00
2023-01-25T11:02:47.718Z,-3.00
2023-01-25T11:05:55.441Z,-3.00
2023-01-25T11:08:53.195Z,-3.10
2023-01-25T11:12:14.618Z,-3.20
2023-01-25T11:15:27.725Z,-3.20
2023-01-25T11:18:27.804Z,-3.30
2023-01-25T11:21:28.666Z,-3.40
2023-01-25T11:24:29.577Z,-3.60
2023-01-25T11:27:29.787Z,-3.60
2023-01-25T11:30:27.605Z,-3.70
2023-01-25T11:33:27.343Z,-3.80
2023-01-25T11:36:39.289Z,-3.80
2023-01-25T11:40:03.256Z,-3.90
2023-01-25T11:43:31.824Z,-4.00
2023-01-25T11:46:48.821Z,-4.10
2023-01-25T11:50:18.373Z,-4.20
2023-01-25T11:53:34.686Z,-4.20
2023-01-25T11:57:01.110Z,-4.20
2023-01-25T12:00:11.852Z,-4.30
2023-01-25T12:03:37.731Z,-4.40
2023-01-25T12:07:04.745Z,-4.40
2023-01-25T12:10:21.448Z,-4.50
2023-01-25T12:13:42.071Z,-4.50
2023-01-25T12:17:15.422Z,-4.50
2023-01-25T12:20:41.322Z,-4.60
2023-01-25T12:24:05.213Z,-4.70
2023-01-25T12:27:21.312Z,-4.70
2023-01-25T12:30:40.430Z,-4.80
2023-01-25T12:33:48.667Z,-4.80
2023-01-25T12:36:49.560Z,-5.00
2023-01-25T12:40:03.162Z,-5.10
2023-01-25T12:43:03.591Z,-5.10
2023-01-25T12:46:07.887Z,-5.30
2023-01-25T12:49:16.328Z,-5.30
2023-01-25T12:52:40.483Z,-5.40
2023-01-25T12:55:38.645Z,-5.40
2023-01-25T12:58:49.019Z,-5.50
2023-01-25T13:01:55.582Z,-5.60
2023-01-25T13:05:11.056Z,-5.60
2023-01-25T13:08:31.981Z,-5.70
2023-01-25T13:11:46.751Z,-5.80
2023-01-25T13:14:44.961Z,-5.90
2023-01-25T13:17:42.963Z,-5.80
2023-01-25T13:20:54.032Z,-5.90
2023-01-25T13:24:13.145Z,-5.90
2023-01-25T13:27:29.502Z,-5.90
2023-01-25T13:30:33.042Z,-6.00
2023-01-25T13:33:36.509Z,-6.00
2023-01-25T13:36:39.209Z,-5.90
2023-01-25T13:39:56.898Z,-6.00
2023-01-25T13:43:23.110Z,-6.00
2023-01-25T13:46:25.634Z,-6.10
2023-01-25T13:49:29.207Z,-6.20
2023-01-25T13:52:28.992Z,-6.20
2023-01-25T13:55:30.438Z,-6.20
2023-01-25T13:58:33.855Z,-6.10
2023-01-25T14:01:32.509Z,-6.10
2023-01-25T14:04:32.634Z,-6.20
2023-01-25T14:07:34.199Z,-6.30
2023-01-25T14:10:33.293Z,-6.40
2023-01-25T14:13:31.345Z,-6.40
2023-01-25T14:16:31.451Z,-6.50
2023-01-25T14:19:31.690Z,-6.60
2023-01-25T14:22:33.366Z,-6.60
2023-01-25T14:25:31.350Z,-6.50
2023-01-25T14:28:31.205Z,-6.50
2023-01-25T14:31:36.281Z,-6.50
2023-01-25T14:34:34.608Z,-6.50
2023-01-25T14:37:32.500Z,-6.60
2023-01-25T14:40:32.020Z,-6.60
2023-01-25T14:43:31.780Z,-6.70
2023-01-25T14:46:35.229Z,-6.70
2023-01-25T14:49:33.605Z,-6.80
2023-01-25T14:52:32.211Z,-6.90
2023-01-25T14:55:30.295Z,-6.90
2023-01-25T14:59:01.290Z,-6.90
2023-01-25T15:02:25.332Z,-7.00
2023-01-25T15:05:28.607Z,-7.00
2023-01-25T15:08:29.717Z,-7.10
2023-01-25T15:11:38.882Z,-7.10
2023-01-25T15:14:50.461Z,-7.20
2023-01-25T15:17:51.801Z,-7.20
2023-01-25T15:20:50.160Z,-7.20
2023-01-25T15:23:50.365Z,-7.30
2023-01-25T15:26:51.955Z,-7.30
2023-01-25T15:29:51.386Z,-7.30
2023-01-25T15:32:50.226Z,-7.30
2023-01-25T15:35:48.943Z,-7.40
2023-01-25T15:38:47.556Z,-7.40
2023-01-25T15:41:48.162Z,-7.40
2023-01-25T15:44:46.084Z,-7.30
2023-01-25T15:47:44.150Z,-7.30
2023-01-25T15:50:43.044Z,-7.40
2023-01-25T15:53:41.418Z,-7.30
2023-01-25T15:56:42.493Z,-7.30
2023-01-25T15:59:45.395Z,-7.40
2023-01-25T16:02:44.022Z,-7.30
2023-01-25T16:05:42.241Z,-7.30
2023-01-25T16:08:40.658Z,-7.40
2023-01-25T16:11:38.941Z,-7.40
2023-01-25T16:14:36.832Z,-7.40
2023-01-25T16:17:35.660Z,-7.40
2023-01-25T16:20:34.033Z,-7.50
2023-01-25T16:23:32.092Z,-7.50
2023-01-25T16:26:30.297Z,-7.40
2023-01-25T16:29:30.389Z,-7.50
2023-01-25T16:32:28.719Z,-7.50
2023-01-25T16:35:27.273Z,-7.50
2023-01-25T16:38:25.196Z,-7.60
2023-01-25T16:41:24.506Z,-7.80
2023-01-25T16:44:22.511Z,-7.80
2023-01-25T16:47:20.795Z,-7.80
2023-01-25T16:50:21.442Z,-7.70
2023-01-25T16:53:19.661Z,-7.80
2023-01-25T16:56:23.152Z,-7.90
2023-01-25T16:59:21.592Z,-8.00
2023-01-25T17:05:41.084Z,-8.00
2023-01-25T17:08:39.038Z,-8.10
2023-01-25T17:11:39.100Z,-8.10
2023-01-25T17:14:37.117Z,-8.20
2023-01-25T17:17:36.601Z,-8.20
2023-01-25T17:20:34.574Z,-8.20
2023-01-25T17:23:34.535Z,-8.20
2023-01-25T17:26:33.579Z,-8.20
2023-01-25T17:29:32.112Z,-8.30
2023-01-25T17:32:30.721Z,-8.30
2023-01-25T17:35:28.913Z,-8.20
2023-01-25T17:38:27.016Z,-8.20
2023-01-25T17:41:26.407Z,-8.20
2023-01-25T17:44:27.767Z,-8.20
2023-01-25T17:47:25.954Z,-8.30
2023-01-25T17:50:24.179Z,-8.20
2023-01-25T17:53:22.242Z,-8.20
2023-01-25T17:56:20.736Z,-8.20
2023-01-25T17:59:19.221Z,-8.20
2023-01-25T18:02:17.263Z,-8.20
2023-01-25T18:05:16.439Z,-8.10
2023-01-25T18:08:14.395Z,-8.00
2023-01-25T18:11:16.017Z,-8.00
2023-01-25T18:14:17.924Z,-8.00
2023-01-25T18:17:15.796Z,-8.00
2023-01-25T18:20:13.938Z,-7.90
2023-01-25T18:23:11.972Z,-8.00
2023-01-25T18:26:19.673Z,-7.90
2023-01-25T18:29:40.000Z,-8.00
2023-01-25T18:32:37.933Z,-7.90
2023-01-25T18:35:36.162Z,-8.00
2023-01-25T18:38:33.947Z,-7.90
2023-01-25T18:41:32.116Z,-7.90
2023-01-25T18:44:30.490Z,-7.90
2023-01-25T18:47:28.918Z,-7.90
2023-01-25T18:50:27.785Z,-8.00
2023-01-25T18:53:28.051Z,-8.00
2023-01-25T18:56:27.757Z,-8.00
2023-01-25T18:59:25.867Z,-8.00
2023-01-25T19:02:24.291Z,-8.00
2023-01-25T19:05:22.364Z,-8.00
2023-01-25T19:08:21.141Z,-8.00
2023-01-25T19:11:20.664Z,-7.90
2023-01-25T19:14:18.641Z,-7.90
2023-01-25T19:17:16.425Z,-7.90
2023-01-25T19:20:14.134Z,-8.00
2023-01-25T19:23:12.275Z,-8.00
2023-01-25T19:26:13.911Z,-7.80
2023-01-25T19:29:13.843Z,-7.80
2023-01-25T19:32:11.687Z,-7.90
2023-01-25T19:35:09.885Z,-7.90
2023-01-25T19:38:07.870Z,-7.90
2023-01-25T19:41:07.662Z,-7.90
2023-01-25T19:44:07.635Z,-7.70
2023-01-25T19:47:06.308Z,-7.80
2023-01-25T19:50:04.405Z,-7.80
2023-01-25T19:53:03.222Z,-7.80
2023-01-25T19:56:03.924Z,-7.80
2023-01-25T19:59:04.779Z,-7.80
2023-01-25T20:02:02.942Z,-7.70
2023-01-25T20:05:00.859Z,-7.80
2023-01-25T20:07:58.560Z,-7.80
2023-01-25T20:45:19.594Z,-7.90
2023-01-25T20:48:17.346Z,-7.90
2023-01-25T20:51:17.513Z,-7.90
2023-01-25T20:54:16.631Z,-7.90
2023-01-25T20:57:14.696Z,-8.00
2023-01-25T21:00:14.220Z,-8.00
2023-01-25T21:03:12.104Z,-8.00
2023-01-25T21:06:10.927Z,-8.10
2023-01-25T21:09:08.839Z,-8.10
2023-01-25T21:12:06.769Z,-8.20
2023-01-25T21:15:05.149Z,-8.30
2023-01-25T21:18:03.401Z,-8.30
2023-01-25T21:21:04.414Z,-8.30
2023-01-25T21:24:03.266Z,-8.30
2023-01-25T21:27:01.062Z,-8.40
2023-01-25T21:29:59.164Z,-8.40
2023-01-25T21:32:57.143Z,-8.40
2023-01-25T21:35:56.137Z,-8.30
2023-01-25T21:38:55.634Z,-8.40
2023-01-25T21:41:53.309Z,-8.40
2023-01-25T21:45:06.358Z,-8.40
2023-01-25T21:48:04.090Z,-8.50
2023-01-25T21:51:17.442Z,-8.60
2023-01-25T21:54:16.167Z,-8.60
2023-01-25T21:57:13.918Z,-8.60
2023-01-25T22:00:12.755Z,-8.50
2023-01-25T22:03:10.582Z,-8.40
2023-01-25T22:06:08.262Z,-8.50
2023-01-25T22:09:06.334Z,-8.50
2023-01-25T22:12:04.345Z,-8.50
2023-01-25T22:15:03.947Z,-8.60
2023-01-25T22:18:05.516Z,-8.60
2023-01-25T22:21:05.973Z,-8.60
2023-01-25T22:24:06.324Z,-8.50
2023-01-25T22:27:29.877Z,-8.40
2023-01-25T22:30:27.675Z,-8.40
2023-01-25T22:33:25.453Z,-8.30
2023-01-25T22:36:24.908Z,-8.20
2023-01-25T22:39:22.756Z,-8.20
2023-01-25T22:42:20.503Z,-8.10
2023-01-25T22:45:18.427Z,-8.10
2023-01-25T22:48:16.064Z,-8.10
2023-01-25T22:51:17.603Z,-8.10
2023-01-25T22:54:15.415Z,-8.00
2023-01-25T22:57:13.218Z,-8.10
2023-01-25T23:00:11.970Z,-8.10
2023-01-25T23:03:10.203Z,-8.00
2023-01-25T23:06:13.206Z,-8.00
2023-01-25T23:09:11.345Z,-8.10
2023-01-25T23:12:09.048Z,-8.10
2023-01-25T23:15:07.659Z,-8.00
2023-01-25T23:18:25.467Z,-8.10
2023-01-25T23:21:31.520Z,-8.00
2023-01-25T23:24:29.293Z,-7.90
2023-01-25T23:27:27.026Z,-7.90
2023-01-25T23:30:24.691Z,-7.90
2023-01-25T23:33:22.435Z,-7.80
2023-01-25T23:36:25.463Z,-7.90
2023-01-25T23:39:24.357Z,-8.00
2023-01-25T23:42:22.032Z,-8.00
2023-01-25T23:45:19.865Z,-8.00
2023-01-25T23:48:17.441Z,-8.00
2023-01-25T23:51:16.788Z,-7.90
2023-01-25T23:54:14.534Z,-7.90
2023-01-25T23:57:12.479Z,-7.90
